Time;durP1;ratioP1;P1;durP2;ratioP2;P2;SDS_P1;SDS_P2;PMS_P1;PMS_P2;Temp;Humidity;BMP_temperature;BMP_pressure;BME280_temperature;BME280_humidity;BME280_pressure;Samples;Min_cycle;Max_cycle;Signal;HPM_P1;HPM_P2
2023/08/25 00:02:12;;;;;;;;;;;;;;;30.42;44.17;94185.69;4991504;28;7240;-55
2023/08/25 00:04:44;;;;;;;;;;;;;;;30.43;44.34;94181.63;4989389;28;9171;-55
2023/08/25 00:07:17;;;;;;;;;;;;;;;30.46;44.25;94172.22;4989653;28;7206;-55
2023/08/25 00:09:50;;;;;;;;;;;;;;;30.44;44.26;94171.25;4978568;28;7469;-55
2023/08/25 00:12:18;;;;;;;;;;;;;;;30.42;44.39;94152.41;4992361;28;9157;-55
2023/08/25 00:14:44;;;;;;;;;;;;;;;30.43;44.59;94153.13;5020690;28;7166;-55
2023/08/25 00:17:17;;;;;;;;;;;;;;;30.43;44.07;94142.00;4983289;28;8518;-55
2023/08/25 00:19:44;;;;;;;;;;;;;;;30.41;44.38;94136.28;4993248;28;7077;-55
2023/08/25 00:22:12;;;;;;;;;;;;;;;30.44;44.91;94118.53;4996448;28;7215;-55
2023/08/25 00:24:38;;;;;;;;;;;;;;;30.44;43.63;94108.19;5008333;28;7231;-55
2023/08/25 00:27:04;;;;;;;;;;;;;;;30.42;44.28;94098.91;4995214;28;7335;-55
2023/08/25 00:29:41;;;;;;;;;;;;;;;30.41;44.16;94095.41;4995265;28;9088;-55
2023/08/25 00:32:19;;;;;;;;;;;;;;;30.38;44.79;94087.44;4992492;28;7118;-55
2023/08/25 00:34:46;;;;;;;;;;;;;;;30.35;44.58;94071.88;5001073;28;10039;-55
2023/08/25 00:37:38;;;;;;;;;;;;;;;30.33;44.72;94057.81;4991548;28;7321;-55
2023/08/25 00:40:22;;;;;;;;;;;;;;;30.29;43.76;94037.97;5003263;28;7086;-55
2023/08/25 00:43:03;;;;;;;;;;;;;;;30.31;44.83;94046.53;4994769;28;9158;-55
2023/08/25 00:46:08;;;;;;;;;;;;;;;30.31;44.32;94043.75;4999631;28;7241;-62
2023/08/25 00:48:43;;;;;;;;;;;;;;;30.25;43.89;94038.34;5017766;28;8154;-61
2023/08/25 00:51:15;;;;;;;;;;;;;;;30.25;44.49;94038.34;4989888;28;7318;-61
2023/08/25 00:53:56;;;;;;;;;;;;;;;30.24;44.19;94042.41;4994381;28;8376;-61
2023/08/25 00:56:24;;;;;;;;;;;;;;;30.24;44.26;94047.22;4986277;28;9122;-61
2023/08/25 00:58:50;;;;;;;;;;;;;;;30.26;42.85;94042.59;4977679;28;7188;-61
2023/08/25 01:01:54;;;;;;;;;;;;;;;30.27;43.57;94051.66;4996796;28;7058;-61
2023/08/25 01:04:20;;;;;;;;;;;;;;;30.22;43.36;94058.88;4983494;28;8586;-62
2023/08/25 01:07:00;;;;;;;;;;;;;;;30.20;42.99;94064.22;4999656;28;8798;-61
2023/08/25 01:09:43;;;;;;;;;;;;;;;30.20;43.33;94058.69;5015113;28;7211;-61
2023/08/25 01:12:27;;;;;;;;;;;;;;;30.18;43.25;94066.81;5022712;28;9361;-62
2023/08/25 01:15:39;;;;;;;;;;;;;;;30.17;43.17;94064.56;5009193;28;9188;-62
2023/08/25 01:18:42;;;;;;;;;;;;;;;30.15;42.60;94067.16;4930747;29;7256;-61
2023/08/25 01:21:20;;;;;;;;;;;;;;;30.14;43.28;94071.97;4899397;29;9191;-62
2023/08/25 01:24:28;;;;;;;;;;;;;;;30.13;43.37;94067.69;4915222;29;7215;-61
2023/08/25 01:27:02;;;;;;;;;;;;;;;30.13;43.29;94083.59;4870569;29;7259;-61
2023/08/25 01:29:29;;;;;;;;;;;;;;;30.13;44.05;94087.13;4860302;29;9513;-61
2023/08/25 01:32:00;;;;;;;;;;;;;;;30.11;43.92;94098.03;4873604;29;6996;-61
2023/08/25 01:34:30;;;;;;;;;;;;;;;30.09;43.35;94106.16;4874055;29;7069;-61
2023/08/25 01:37:10;;;;;;;;;;;;;;;30.09;44.37;94122.78;4872271;29;7201;-61
2023/08/25 01:39:42;;;;;;;;;;;;;;;30.11;43.21;94134.09;4873856;29;7202;-62
2023/08/25 01:42:25;;;;;;;;;;;;;;;30.13;43.64;94147.41;4857510;29;9224;-61
2023/08/25 01:44:55;;;;;;;;;;;;;;;30.13;44.12;94150.91;4852996;29;9048;-62
2023/08/25 01:47:27;;;;;;;;;;;;;;;30.12;43.91;94155.00;4870252;29;6974;-61
2023/08/25 01:50:09;;;;;;;;;;;;;;;30.14;44.39;94160.00;4857480;29;8965;-61
2023/08/25 01:52:41;;;;;;;;;;;;;;;30.13;43.66;94164.03;4860645;29;8144;-61
2023/08/25 01:55:25;;;;;;;;;;;;;;;30.14;44.02;94166.28;4854090;29;9107;-61
2023/08/25 01:57:52;;;;;;;;;;;;;;;30.11;43.22;94150.72;4930696;28;7237;-61
2023/08/25 02:00:19;;;;;;;;;;;;;;;30.11;43.39;94142.41;4940858;28;9100;-61
2023/08/25 02:02:47;;;;;;;;;;;;;;;30.07;44.17;94144.78;4961398;28;7315;-61
2023/08/25 02:05:43;;;;;;;;;;;;;;;30.04;43.65;94145.88;4993165;28;7545;-61
2023/08/25 02:08:09;;;;;;;;;;;;;;;30.04;44.30;94128.50;4986705;28;7017;-61
2023/08/25 02:10:46;;;;;;;;;;;;;;;30.05;43.65;94116.13;4948842;28;7056;-61
2023/08/25 02:13:16;;;;;;;;;;;;;;;30.06;44.27;94126.66;4970042;28;7086;-61
2023/08/25 02:15:46;;;;;;;;;;;;;;;30.05;43.31;94130.72;4947968;28;7241;-61
2023/08/25 02:18:14;;;;;;;;;;;;;;;30.07;43.11;94130.19;4966380;28;8454;-61
2023/08/25 02:20:41;;;;;;;;;;;;;;;30.06;43.25;94118.34;4979487;28;9371;-61
2023/08/25 02:23:08;;;;;;;;;;;;;;;30.03;43.19;94099.28;4968509;28;7006;-61
2023/08/25 02:25:36;;;;;;;;;;;;;;;30.05;43.64;94097.44;4980671;28;7065;-61
2023/08/25 02:28:02;;;;;;;;;;;;;;;30.01;44.11;94090.78;4946656;28;9412;-61
2023/08/25 02:30:31;;;;;;;;;;;;;;;30.02;43.44;94098.53;4968434;28;7087;-61
2023/08/25 02:32:57;;;;;;;;;;;;;;;30.01;43.87;94088.00;4944038;28;8392;-61
2023/08/25 02:35:23;;;;;;;;;;;;;;;30.07;42.64;94105.97;4961168;28;9457;-61
2023/08/25 02:38:04;;;;;;;;;;;;;;;30.09;42.86;94097.84;4967150;28;6968;-61
2023/08/25 02:40:30;;;;;;;;;;;;;;;30.07;42.66;94086.53;4974505;28;7303;-61
2023/08/25 02:43:05;;;;;;;;;;;;;;;30.11;42.58;94086.19;4950075;28;7142;-61
2023/08/25 02:45:32;;;;;;;;;;;;;;;30.12;43.14;94082.88;4976953;28;7357;-61
2023/08/25 02:47:59;;;;;;;;;;;;;;;30.12;42.55;94085.66;4978645;28;8764;-61
2023/08/25 02:50:25;;;;;;;;;;;;;;;30.09;42.18;94083.22;4984340;28;7074;-61
2023/08/25 02:53:05;;;;;;;;;;;;;;;30.13;42.90;94095.44;4983799;28;7274;-61
2023/08/25 02:55:34;;;;;;;;;;;;;;;30.11;42.93;94086.94;4995242;28;7834;-61
2023/08/25 02:58:08;;;;;;;;;;;;;;;30.12;42.67;94084.91;4986531;28;7250;-61
2023/08/25 03:00:44;;;;;;;;;;;;;;;30.11;42.42;94080.63;5017315;28;7357;-61
2023/08/25 03:03:35;;;;;;;;;;;;;;;30.15;43.25;94076.22;4998421;28;7237;-61
2023/08/25 03:06:06;;;;;;;;;;;;;;;30.15;42.97;94072.69;4983087;28;7017;-55
2023/08/25 03:09:01;;;;;;;;;;;;;;;30.16;42.03;94063.84;4990124;28;7187;-55
2023/08/25 03:11:47;;;;;;;;;;;;;;;30.14;42.06;94055.34;4965171;28;8945;-55
2023/08/25 03:14:42;;;;;;;;;;;;;;;30.13;42.05;94034.41;4964434;28;9118;-55
2023/08/25 03:17:17;;;;;;;;;;;;;;;30.12;41.62;94024.63;4898838;29;7249;-55
2023/08/25 03:20:01;;;;;;;;;;;;;;;30.11;42.78;94023.13;4908421;29;9054;-55
2023/08/25 03:22:28;;;;;;;;;;;;;;;30.12;41.92;94024.63;4899565;29;9242;-55
2023/08/25 03:24:57;;;;;;;;;;;;;;;30.09;42.55;94011.09;4905838;29;7241;-55
2023/08/25 03:27:36;;;;;;;;;;;;;;;30.12;41.80;94024.63;4889626;29;9436;-55
2023/08/25 03:30:37;;;;;;;;;;;;;;;30.13;42.65;94020.53;4909194;29;7236;-55
2023/08/25 03:33:05;;;;;;;;;;;;;;;30.11;42.54;94025.16;4862387;29;9830;-55
2023/08/25 03:35:46;;;;;;;;;;;;;;;30.11;42.15;94023.13;4847813;29;8762;-55
2023/08/25 03:38:14;;;;;;;;;;;;;;;30.11;41.51;94019.59;4854612;29;7417;-55
2023/08/25 03:40:43;;;;;;;;;;;;;;;30.11;41.43;94012.03;4852157;29;7239;-55
2023/08/25 03:43:17;;;;;;;;;;;;;;;30.09;41.42;94011.84;4854790;29;7135;-55
2023/08/25 03:45:43;;;;;;;;;;;;;;;30.08;41.89;94010.34;4859599;29;7242;-55
2023/08/25 03:48:09;;;;;;;;;;;;;;;30.06;41.96;94004.63;4853108;29;7258;-55
2023/08/25 03:51:05;;;;;;;;;;;;;;;30.07;42.06;94000.56;4876745;29;8965;-55
2023/08/25 03:53:51;;;;;;;;;;;;;;;30.06;41.90;93990.03;4899556;29;8997;-55
2023/08/25 03:56:26;;;;;;;;;;;;;;;30.07;41.96;93983.19;4934006;29;6981;-55
2023/08/25 03:58:52;;;;;;;;;;;;;;;30.07;41.89;93972.81;4920180;29;6986;-55
2023/08/25 04:01:30;;;;;;;;;;;;;;;30.09;41.27;93966.72;4934588;29;7472;-55
2023/08/25 04:04:06;;;;;;;;;;;;;;;30.04;41.55;93957.28;4936400;28;8891;-55
2023/08/25 04:06:34;;;;;;;;;;;;;;;30.05;41.29;93947.69;4921216;29;7181;-55
2023/08/25 04:09:01;;;;;;;;;;;;;;;30.05;40.98;93944.91;4952219;28;7519;-55
2023/08/25 04:11:28;;;;;;;;;;;;;;;30.04;41.18;93935.09;4987165;28;10284;-55
2023/08/25 04:13:57;;;;;;;;;;;;;;;30.05;41.42;93936.59;4998739;28;7179;-62
2023/08/25 04:16:23;;;;;;;;;;;;;;;30.03;41.07;93939.16;4980523;28;8977;-62
2023/08/25 04:18:52;;;;;;;;;;;;;;;30.02;41.16;93936.94;4993097;28;8824;-62
2023/08/25 04:21:39;;;;;;;;;;;;;;;30.00;40.85;93929.16;4991903;28;7845;-62
2023/08/25 04:24:19;;;;;;;;;;;;;;;30.00;41.20;93925.66;4992143;28;7189;-62
2023/08/25 04:27:40;;;;;;;;;;;;;;;29.99;41.19;93922.16;4995552;28;7289;-62
2023/08/25 04:30:11;;;;;;;;;;;;;;;29.97;41.13;93926.75;4980220;28;7125;-62
2023/08/25 04:32:39;;;;;;;;;;;;;;;29.99;40.74;93919.38;5001850;28;7324;-62
2023/08/25 04:35:26;;;;;;;;;;;;;;;30.00;41.19;93928.41;4995991;28;7249;-62
2023/08/25 04:38:01;;;;;;;;;;;;;;;29.98;41.57;93919.91;4986308;28;7153;-62
2023/08/25 04:40:35;;;;;;;;;;;;;;;29.96;41.71;93920.47;4990973;28;8001;-62
2023/08/25 04:43:01;;;;;;;;;;;;;;;30.00;41.41;93929.16;5006222;28;7216;-62
2023/08/25 04:45:27;;;;;;;;;;;;;;;29.98;40.87;93928.22;4988831;28;9098;-61
2023/08/25 04:47:56;;;;;;;;;;;;;;;29.97;40.84;93926.75;4986440;28;7120;-61
2023/08/25 04:50:25;;;;;;;;;;;;;;;29.91;41.24;93932.47;5005281;28;7194;-61
2023/08/25 04:52:55;;;;;;;;;;;;;;;29.88;42.02;93939.13;4989116;28;9563;-61
2023/08/25 04:55:23;;;;;;;;;;;;;;;29.92;41.50;93936.00;4987094;28;8916;-61
2023/08/25 04:57:58;;;;;;;;;;;;;;;29.94;42.44;93936.19;4993196;28;7066;-62
2023/08/25 05:00:25;;;;;;;;;;;;;;;29.97;41.94;93938.56;4994680;28;8784;-62
2023/08/25 05:03:00;;;;;;;;;;;;;;;30.01;42.13;93930.66;4985213;28;7711;-62
2023/08/25 05:05:26;;;;;;;;;;;;;;;30.02;41.05;93926.59;4991999;28;8081;-62
2023/08/25 05:08:05;;;;;;;;;;;;;;;30.03;41.76;93933.63;4984270;28;7257;-62
2023/08/25 05:10:37;;;;;;;;;;;;;;;29.99;40.86;93924.94;4987599;28;9174;-61
2023/08/25 05:13:21;;;;;;;;;;;;;;;29.96;42.04;93930.81;5000627;28;9068;-62
2023/08/25 05:15:56;;;;;;;;;;;;;;;29.97;41.06;93935.09;4994797;28;8499;-61
2023/08/25 05:18:33;;;;;;;;;;;;;;;29.95;42.03;93921.75;4985598;28;7234;-62
2023/08/25 05:21:01;;;;;;;;;;;;;;;29.97;41.26;93918.44;4981938;28;9150;-61
2023/08/25 05:23:43;;;;;;;;;;;;;;;29.95;41.35;93915.47;4986175;28;9085;-63
2023/08/25 05:26:09;;;;;;;;;;;;;;;29.96;41.35;93906.59;4999504;28;8702;-62
2023/08/25 05:28:35;;;;;;;;;;;;;;;29.97;41.67;93921.94;4990053;28;7116;-61
2023/08/25 05:31:10;;;;;;;;;;;;;;;29.98;41.99;93928.97;4983912;28;9108;-60
2023/08/25 05:33:38;;;;;;;;;;;;;;;29.98;41.99;93928.97;4987866;28;6988;-60
2023/08/25 05:36:04;;;;;;;;;;;;;;;29.97;41.29;93932.31;5000644;28;7131;-60
2023/08/25 05:38:32;;;;;;;;;;;;;;;30.01;41.65;93938.22;4984275;28;6994;-60
2023/08/25 05:41:02;;;;;;;;;;;;;;;29.98;42.76;93937.28;4991238;28;9478;-60
2023/08/25 05:43:35;;;;;;;;;;;;;;;29.98;41.88;93931.00;4989175;28;9164;-60
2023/08/25 05:46:01;;;;;;;;;;;;;;;30.00;42.14;93933.97;4965396;28;9105;-61
2023/08/25 05:48:43;;;;;;;;;;;;;;;30.01;42.07;93921.59;4989042;28;8714;-61
2023/08/25 05:51:16;;;;;;;;;;;;;;;30.02;42.85;93923.81;5022764;28;7256;-60
2023/08/25 05:53:55;;;;;;;;;;;;;;;30.02;43.43;93932.13;4989544;28;7073;-60
2023/08/25 05:56:30;;;;;;;;;;;;;;;30.04;43.17;93937.13;4990391;28;7077;-60
2023/08/25 05:58:59;;;;;;;;;;;;;;;30.07;42.29;93936.78;5014874;28;7720;-60
2023/08/25 06:01:54;;;;;;;;;;;;;;;30.03;42.99;93933.63;4987840;28;7593;-61
2023/08/25 06:04:25;;;;;;;;;;;;;;;30.06;43.09;93935.28;4925589;28;7527;-60
2023/08/25 06:07:22;;;;;;;;;;;;;;;30.04;42.45;93932.31;4917618;29;7370;-60
2023/08/25 06:10:08;;;;;;;;;;;;;;;30.01;42.84;93933.44;4854835;29;9075;-60
2023/08/25 06:12:34;;;;;;;;;;;;;;;30.01;43.33;93935.47;4853746;29;7139;-60
2023/08/25 06:15:30;;;;;;;;;;;;;;;29.96;43.94;93939.13;4847868;29;9238;-61
2023/08/25 06:18:07;;;;;;;;;;;;;;;29.96;43.11;93930.81;4858352;29;7042;-60
2023/08/25 06:20:36;;;;;;;;;;;;;;;29.94;44.07;93931.38;4855374;29;7851;-60
2023/08/25 06:23:04;;;;;;;;;;;;;;;29.95;43.23;93938.38;4842945;29;7367;-61
2023/08/25 06:25:31;;;;;;;;;;;;;;;29.96;43.01;93947.47;4840523;29;9592;-61
2023/08/25 06:27:57;;;;;;;;;;;;;;;29.94;43.65;93947.28;4855306;29;8125;-61
2023/08/25 06:30:26;;;;;;;;;;;;;;;29.97;43.54;93952.44;4840155;29;6976;-61
2023/08/25 06:32:54;;;;;;;;;;;;;;;29.96;43.46;93950.22;4842368;29;7353;-61
2023/08/25 06:35:21;;;;;;;;;;;;;;;29.97;43.59;93965.59;4839874;29;7246;-62
2023/08/25 06:38:23;;;;;;;;;;;;;;;29.93;43.02;93971.47;4857177;29;7169;-62
2023/08/25 06:40:54;;;;;;;;;;;;;;;29.86;44.71;93969.44;4842381;29;7260;-62
2023/08/25 06:43:31;;;;;;;;;;;;;;;29.84;43.69;93983.09;4858798;29;7119;-62
2023/08/25 06:46:08;;;;;;;;;;;;;;;29.76;44.14;93996.94;4889294;29;7029;-62
2023/08/25 06:48:34;;;;;;;;;;;;;;;29.69;44.88;93996.84;4911155;29;7044;-62
2023/08/25 06:51:02;;;;;;;;;;;;;;;29.55;44.55;94007.34;4915546;29;7370;-62
2023/08/25 06:53:28;;;;;;;;;;;;;;;29.41;46.15;94038.47;4937247;28;7282;-62
2023/08/25 06:56:03;;;;;;;;;;;;;;;29.45;45.96;94110.91;4952854;28;7376;-62
2023/08/25 06:58:34;;;;;;;;;;;;;;;29.50;46.50;94154.34;4979582;28;7059;-62
2023/08/25 07:01:10;;;;;;;;;;;;;;;29.53;46.21;94137.41;4962287;28;8181;-62
2023/08/25 07:03:53;;;;;;;;;;;;;;;29.58;46.58;94114.31;4954742;28;9446;-62
2023/08/25 07:06:19;;;;;;;;;;;;;;;29.61;46.24;94102.16;4979379;28;7415;-62
2023/08/25 07:08:50;;;;;;;;;;;;;;;29.68;46.33;94109.03;4971120;28;9058;-62
2023/08/25 07:11:16;;;;;;;;;;;;;;;29.68;46.24;94120.13;4968508;28;9093;-62
2023/08/25 07:13:45;;;;;;;;;;;;;;;29.76;45.34;94115.38;4959002;28;8653;-62
2023/08/25 07:16:15;;;;;;;;;;;;;;;29.79;45.33;94136.50;4970323;28;8015;-62
2023/08/25 07:18:43;;;;;;;;;;;;;;;29.79;45.23;94169.75;4984438;28;7369;-63
2023/08/25 07:21:11;;;;;;;;;;;;;;;29.85;45.40;94175.91;4983263;28;7044;-62
2023/08/25 07:23:46;;;;;;;;;;;;;;;29.87;45.11;94176.09;5005873;28;10212;-62
2023/08/25 07:26:12;;;;;;;;;;;;;;;29.88;44.81;94190.72;5005859;28;7203;-61
2023/08/25 07:28:42;;;;;;;;;;;;;;;29.93;44.34;94201.63;4994484;28;7181;-61
2023/08/25 07:31:09;;;;;;;;;;;;;;;29.97;44.75;94215.19;4993297;28;9104;-61
2023/08/25 07:34:02;;;;;;;;;;;;;;;29.99;44.36;94212.59;5006876;28;7222;-61
2023/08/25 07:36:32;;;;;;;;;;;;;;;30.00;44.48;94203.72;4966724;28;8675;-61
2023/08/25 07:38:58;;;;;;;;;;;;;;;30.01;44.28;94210.78;4956465;28;7058;-62
2023/08/25 07:41:26;;;;;;;;;;;;;;;30.02;44.78;94219.81;4973579;28;9533;-62
2023/08/25 07:43:52;;;;;;;;;;;;;;;30.03;44.09;94227.63;4965615;28;7327;-61
2023/08/25 07:46:37;;;;;;;;;;;;;;;30.03;45.37;94237.97;4970463;28;7452;-61
2023/08/25 07:49:07;;;;;;;;;;;;;;;30.03;44.69;94238.72;4972779;28;7277;-61
2023/08/25 07:51:45;;;;;;;;;;;;;;;30.02;44.82;94245.53;4984350;28;7081;-60
2023/08/25 07:54:30;;;;;;;;;;;;;;;30.04;44.10;94254.03;4970188;28;7205;-61
2023/08/25 07:56:58;;;;;;;;;;;;;;;30.05;45.09;94260.34;4988725;28;6971;-61
2023/08/25 07:59:29;;;;;;;;;;;;;;;30.05;44.11;94269.41;4981256;28;7145;-60
2023/08/25 08:01:55;;;;;;;;;;;;;;;30.03;45.09;94271.25;4969531;28;7267;-61
2023/08/25 08:04:24;;;;;;;;;;;;;;;30.06;44.55;94289.59;4982971;28;9118;-61
2023/08/25 08:06:55;;;;;;;;;;;;;;;30.07;45.04;94283.47;4968935;28;7243;-61
2023/08/25 08:09:23;;;;;;;;;;;;;;;30.11;44.05;94288.69;4978098;28;7225;-61
2023/08/25 08:12:00;;;;;;;;;;;;;;;30.11;44.40;94297.00;4966869;28;7578;-60
2023/08/25 08:14:35;;;;;;;;;;;;;;;30.13;44.63;94309.03;4981311;28;7360;-61
2023/08/25 08:17:03;;;;;;;;;;;;;;;30.11;44.99;94306.06;4984167;28;9191;-61
2023/08/25 08:19:29;;;;;;;;;;;;;;;30.12;45.14;94304.78;4993433;28;9431;-62
2023/08/25 08:22:00;;;;;;;;;;;;;;;30.16;44.48;94310.00;4989644;28;9234;-62
2023/08/25 08:24:30;;;;;;;;;;;;;;;30.15;45.38;94314.03;4991267;28;7007;-62
2023/08/25 08:27:18;;;;;;;;;;;;;;;30.15;44.41;94306.47;4988585;28;7530;-62
2023/08/25 08:29:49;;;;;;;;;;;;;;;30.16;44.40;94307.97;4979101;28;9107;-62
2023/08/25 08:32:16;;;;;;;;;;;;;;;30.17;43.98;94314.25;4978800;28;7255;-61
2023/08/25 08:34:43;;;;;;;;;;;;;;;30.16;44.85;94319.06;4990383;28;7270;-61
2023/08/25 08:37:11;;;;;;;;;;;;;;;30.16;44.83;94324.63;4987666;28;8722;-61
2023/08/25 08:39:38;;;;;;;;;;;;;;;30.16;44.70;94330.16;4984304;28;6935;-61
2023/08/25 08:42:07;;;;;;;;;;;;;;;30.15;44.82;94333.47;4989139;28;9272;-61
2023/08/25 08:44:35;;;;;;;;;;;;;;;30.13;44.24;94334.00;4988469;28;7227;-61
2023/08/25 08:47:06;;;;;;;;;;;;;;;30.15;44.11;94328.66;4991106;28;8254;-61
2023/08/25 08:49:36;;;;;;;;;;;;;;;30.16;44.26;94330.16;4982574;28;9507;-62
2023/08/25 08:52:05;;;;;;;;;;;;;;;30.17;44.39;94331.63;4989273;28;7843;-61
2023/08/25 08:54:40;;;;;;;;;;;;;;;30.17;44.21;94337.19;4984977;28;8200;-62
2023/08/25 08:57:06;;;;;;;;;;;;;;;30.17;44.68;94333.66;4992706;28;6985;-62
2023/08/25 08:59:35;;;;;;;;;;;;;;;30.19;44.17;94336.66;5008098;28;7259;-62
2023/08/25 09:02:04;;;;;;;;;;;;;;;30.19;44.84;94342.94;5003587;28;7214;-61
2023/08/25 09:04:33;;;;;;;;;;;;;;;30.19;44.62;94342.94;4988987;28;9032;-60
2023/08/25 09:07:03;;;;;;;;;;;;;;;30.20;44.42;94340.91;5019128;28;7003;-61
2023/08/25 09:09:33;;;;;;;;;;;;;;;30.19;44.43;94333.88;4985996;28;7603;-61
2023/08/25 09:12:37;;;;;;;;;;;;;;;30.22;45.03;94338.34;4984226;28;6996;-61
2023/08/25 09:15:30;;;;;;;;;;;;;;;30.18;44.31;94335.91;4988536;28;7217;-62
2023/08/25 09:18:11;;;;;;;;;;;;;;;30.23;44.71;94342.59;4999489;28;6935;-62
2023/08/25 09:20:48;;;;;;;;;;;;;;;30.23;44.42;94337.06;4984544;28;7239;-61
2023/08/25 09:23:14;;;;;;;;;;;;;;;30.23;44.61;94337.78;4996944;28;9152;-62
2023/08/25 09:25:41;;;;;;;;;;;;;;;30.22;43.87;94343.88;4987742;28;9341;-62
2023/08/25 09:28:07;;;;;;;;;;;;;;;30.22;44.54;94339.09;4999723;28;9960;-61
2023/08/25 09:30:37;;;;;;;;;;;;;;;30.23;44.64;94334.28;4987470;28;7327;-62
2023/08/25 09:33:09;;;;;;;;;;;;;;;30.22;44.85;94338.34;4980347;28;7306;-62
2023/08/25 09:35:47;;;;;;;;;;;;;;;30.23;43.99;94334.28;5019387;28;7500;-61
2023/08/25 09:38:22;;;;;;;;;;;;;;;30.23;44.25;94328.72;5024221;28;9061;-62
2023/08/25 09:40:48;;;;;;;;;;;;;;;30.27;43.92;94327.09;4987602;28;6852;-62
2023/08/25 09:43:31;;;;;;;;;;;;;;;30.26;44.08;94322.09;4987764;28;9322;-62
2023/08/25 09:45:59;;;;;;;;;;;;;;;30.23;44.72;94315.59;5014712;28;7619;-62
2023/08/25 09:48:34;;;;;;;;;;;;;;;30.26;44.63;94319.31;4985524;28;7969;-62
2023/08/25 09:51:08;;;;;;;;;;;;;;;30.25;43.72;94320.59;4988528;28;7235;-61
2023/08/25 09:53:38;;;;;;;;;;;;;;;30.17;45.00;94306.66;4977783;28;6984;-62
2023/08/25 09:56:43;;;;;;;;;;;;;;;30.24;44.49;94314.31;4988441;28;7021;-61
2023/08/25 09:59:19;;;;;;;;;;;;;;;30.24;44.77;94314.31;4966322;28;9085;-61
2023/08/25 10:01:46;;;;;;;;;;;;;;;30.22;44.27;94316.88;4994770;28;7120;-61
2023/08/25 10:04:13;;;;;;;;;;;;;;;30.25;44.41;94315.81;4969533;28;7261;-62
2023/08/25 10:06:51;;;;;;;;;;;;;;;30.27;44.63;94318.78;4976001;28;9109;-62
2023/08/25 10:09:46;;;;;;;;;;;;;;;30.28;44.26;94314.69;4975631;28;7328;-62
2023/08/25 10:12:24;;;;;;;;;;;;;;;30.27;44.91;94318.78;4892012;29;7253;-63
2023/08/25 10:15:07;;;;;;;;;;;;;;;30.29;44.95;94315.44;4890410;29;8898;-64
2023/08/25 10:17:36;;;;;;;;;;;;;;;30.31;44.52;94307.34;4879595;29;7127;-63
2023/08/25 10:20:07;;;;;;;;;;;;;;;30.32;44.85;94309.56;4893196;29;7158;-63
2023/08/25 10:22:38;;;;;;;;;;;;;;;30.31;44.51;94313.66;4875508;29;8611;-62
2023/08/25 10:25:10;;;;;;;;;;;;;;;30.33;44.92;94305.53;4877114;29;7065;-63
2023/08/25 10:27:36;;;;;;;;;;;;;;;30.33;44.51;94304.78;4874532;29;7234;-63
2023/08/25 10:30:06;;;;;;;;;;;;;;;30.34;44.69;94307.00;4896354;29;8815;-62
2023/08/25 10:32:59;;;;;;;;;;;;;;;30.34;44.36;94303.50;4905283;29;7102;-63
2023/08/25 10:35:54;;;;;;;;;;;;;;;30.34;45.49;94303.50;4883955;29;9602;-63
2023/08/25 10:38:34;;;;;;;;;;;;;;;30.30;45.27;94309.34;4893144;29;7073;-63
2023/08/25 10:41:18;;;;;;;;;;;;;;;30.30;45.07;94314.91;4909340;29;7261;-64
2023/08/25 10:44:00;;;;;;;;;;;;;;;30.31;44.79;94310.88;4909474;29;9174;-63
2023/08/25 10:46:26;;;;;;;;;;;;;;;30.30;44.93;94306.56;4892044;29;7023;-64
2023/08/25 10:49:12;;;;;;;;;;;;;;;30.32;45.53;94308.84;4955199;28;8918;-64
2023/08/25 10:51:38;;;;;;;;;;;;;;;30.33;44.67;94311.06;4978082;28;7106;-63
2023/08/25 10:54:17;;;;;;;;;;;;;;;30.34;45.19;94312.56;4984905;28;7229;-63
2023/08/25 10:56:50;;;;;;;;;;;;;;;30.31;45.29;94312.91;4986009;28;9123;-64
2023/08/25 10:59:28;;;;;;;;;;;;;;;30.32;44.68;94311.63;4982433;28;7240;-64
2023/08/25 11:01:57;;;;;;;;;;;;;;;30.33;44.71;94308.31;4981484;28;6997;-64
2023/08/25 11:04:26;;;;;;;;;;;;;;;30.35;44.83;94304.97;4987116;28;6982;-64
2023/08/25 11:06:56;;;;;;;;;;;;;;;30.36;44.53;94293.31;4975748;28;9062;-63
2023/08/25 11:09:32;;;;;;;;;;;;;;;30.39;45.21;94297.03;4985988;28;9164;-63
2023/08/25 11:12:07;;;;;;;;;;;;;;;30.37;44.71;94292.03;5000667;28;7280;-64
2023/08/25 11:14:38;;;;;;;;;;;;;;;30.37;45.14;94282.97;4984921;28;8840;-64
2023/08/25 11:17:14;;;;;;;;;;;;;;;30.39;45.03;94286.69;4984481;28;7562;-64
2023/08/25 11:19:42;;;;;;;;;;;;;;;30.38;44.39;94274.09;4984946;28;7510;-64
2023/08/25 11:22:10;;;;;;;;;;;;;;;30.39;44.06;94281.16;4983781;28;7132;-64
2023/08/25 11:24:39;;;;;;;;;;;;;;;30.38;44.37;94278.91;4982262;28;6942;-63
2023/08/25 11:27:14;;;;;;;;;;;;;;;30.39;44.46;94269.28;4970418;28;7240;-64
2023/08/25 11:29:44;;;;;;;;;;;;;;;30.39;44.96;94264.50;4998650;28;7056;-64
2023/08/25 11:32:12;;;;;;;;;;;;;;;30.42;44.50;94271.00;4992462;28;7349;-64
2023/08/25 11:34:49;;;;;;;;;;;;;;;30.43;44.27;94270.44;4990224;28;7301;-64
2023/08/25 11:37:23;;;;;;;;;;;;;;;30.45;44.65;94278.94;4976751;28;7059;-64
2023/08/25 11:39:49;;;;;;;;;;;;;;;30.47;44.48;94265.28;4982647;28;6982;-63
2023/08/25 11:42:20;;;;;;;;;;;;;;;30.47;44.73;94267.31;4993754;28;9030;-64
2023/08/25 11:44:46;;;;;;;;;;;;;;;30.45;44.47;94262.31;4993758;28;9037;-63
2023/08/25 11:47:12;;;;;;;;;;;;;;;30.46;45.02;94249.91;5022579;28;9041;-63
2023/08/25 11:49:42;;;;;;;;;;;;;;;30.46;44.50;94247.16;4980308;28;9176;-63
2023/08/25 11:52:09;;;;;;;;;;;;;;;30.46;44.27;94251.94;4997575;28;8809;-63
2023/08/25 11:54:49;;;;;;;;;;;;;;;30.44;45.20;94248.97;4988829;28;7372;-63
2023/08/25 11:57:15;;;;;;;;;;;;;;;30.43;44.34;94239.91;5004046;28;10216;-64
2023/08/25 11:59:53;;;;;;;;;;;;;;;30.47;44.49;94228.47;4998653;28;8816;-62
2023/08/25 12:02:26;;;;;;;;;;;;;;;30.43;45.20;94208.63;5015023;28;7091;-63
2023/08/25 12:05:00;;;;;;;;;;;;;;;30.46;45.24;94213.09;4999518;28;6996;-62
2023/08/25 12:07:28;;;;;;;;;;;;;;;30.45;45.11;94208.81;4986458;28;7332;-62
2023/08/25 12:10:00;;;;;;;;;;;;;;;30.46;45.22;94210.31;4989129;28;9887;-62
2023/08/25 12:12:32;;;;;;;;;;;;;;;30.45;44.45;94212.34;4986795;28;9432;-62
2023/08/25 12:14:58;;;;;;;;;;;;;;;30.44;44.38;94233.06;4982750;28;7063;-61
2023/08/25 12:17:29;;;;;;;;;;;;;;;30.42;45.16;94238.44;5020379;28;7265;-61
2023/08/25 12:19:57;;;;;;;;;;;;;;;30.41;44.91;94239.72;4988869;28;9377;-61
2023/08/25 12:22:23;;;;;;;;;;;;;;;30.40;44.15;94241.00;4984333;28;7928;-61
2023/08/25 12:24:50;;;;;;;;;;;;;;;30.33;45.64;94227.84;4992444;28;6927;-62
2023/08/25 12:27:18;;;;;;;;;;;;;;;30.38;45.00;94237.28;5018405;28;7091;-62
2023/08/25 12:29:47;;;;;;;;;;;;;;;30.34;44.64;94226.53;5007162;28;7036;-62
2023/08/25 12:32:15;;;;;;;;;;;;;;;30.31;43.44;94224.84;5000102;28;7909;-62
2023/08/25 12:34:44;;;;;;;;;;;;;;;30.26;43.94;94222.19;5002400;28;7263;-62
2023/08/25 12:37:10;;;;;;;;;;;;;;;30.26;43.33;94227.75;4987892;28;8771;-62
2023/08/25 12:39:36;;;;;;;;;;;;;;;30.23;43.92;94217.75;4983936;28;7278;-62
2023/08/25 12:42:04;;;;;;;;;;;;;;;30.22;44.28;94221.81;4987236;28;8781;-62
2023/08/25 12:44:30;;;;;;;;;;;;;;;30.19;43.75;94223.63;4995417;28;7263;-62
2023/08/25 12:46:59;;;;;;;;;;;;;;;30.17;42.89;94217.13;4998360;28;9126;-63
2023/08/25 12:49:28;;;;;;;;;;;;;;;30.19;42.65;94207.00;4987992;28;7106;-62
2023/08/25 12:51:54;;;;;;;;;;;;;;;30.21;42.99;94195.38;4994486;28;7585;-62
2023/08/25 12:54:22;;;;;;;;;;;;;;;30.20;41.63;94172.41;4975951;28;6956;-63
2023/08/25 12:56:54;;;;;;;;;;;;;;;30.21;42.43;94148.19;4983346;28;6996;-62
2023/08/25 12:59:27;;;;;;;;;;;;;;;30.20;41.57;94143.94;4995807;28;9078;-62
2023/08/25 13:01:53;;;;;;;;;;;;;;;30.21;41.72;94145.44;4983994;28;7178;-62
2023/08/25 13:04:20;;;;;;;;;;;;;;;30.17;41.46;94133.91;5002401;28;9058;-62
2023/08/25 13:06:46;;;;;;;;;;;;;;;30.17;41.13;94134.66;4986546;28;8230;-62
2023/08/25 13:09:14;;;;;;;;;;;;;;;30.18;42.92;94122.28;4986232;28;7242;-61
2023/08/25 13:11:43;;;;;;;;;;;;;;;30.22;42.93;94130.25;4990922;28;7576;-62
2023/08/25 13:14:10;;;;;;;;;;;;;;;30.25;43.00;94120.84;4992203;28;9064;-62
2023/08/25 13:16:39;;;;;;;;;;;;;;;30.26;42.21;94125.09;4977803;28;7204;-62
2023/08/25 13:19:05;;;;;;;;;;;;;;;30.27;41.47;94115.47;4990846;28;7233;-61
2023/08/25 13:21:33;;;;;;;;;;;;;;;30.31;42.59;94115.91;4992150;28;9037;-61
2023/08/25 13:23:59;;;;;;;;;;;;;;;30.34;41.71;94100.94;4995111;28;7249;-61
2023/08/25 13:26:26;;;;;;;;;;;;;;;30.38;40.99;94095.75;4983113;28;9040;-62
2023/08/25 13:28:55;;;;;;;;;;;;;;;30.42;41.03;94094.13;5005172;28;7088;-62
2023/08/25 13:31:21;;;;;;;;;;;;;;;30.46;40.10;94083.41;4989781;28;8949;-63